City Of Vicksburg — WDC2660 — position and weather

sailwx.info

Track history (hours):
 
Tides and Currents Weather Stations Pressure Air Temp Water Temp Dewpoint Dewpoint Depression Visibility Wind Speed Wind Dir Waves Ship Positions

City Of Vicksburg

Owner: Kirby Inland Marine LP, Houston, TX. More information available from US FCC via Universal Licensing System and Coast Guard Vessel Documentation Center.

Last reported at 2017-Apr-22 09:07 UTC. Time now 2017-Apr-29 09:13 UTC.
Position N 32°40' W 091°07'.

Length 347 m; draft 3 m.

Type: . MMSI: 366996120.

Date/timePositionNaut miles runAvg speedWind from/ knotsBaromVisibWave heightAir tempDewpointWater temp
2017-Apr-22 09:07N 32°40' W 091°07'1 4.7
2017-Apr-22 09:00N 32°40' W 091°08'2 4.5
2017-Apr-22 08:30N 32°38' W 091°09'2 4.2
2017-Apr-22 08:00N 32°36' W 091°08'2 4.2
2017-Apr-22 07:30N 32°34' W 091°07'2 4.3
2017-Apr-22 06:59N 32°32' W 091°06'2 4.7
2017-Apr-22 06:31N 32°30' W 091°07'2 4.4
2017-Apr-22 06:01N 32°28' W 091°06'2 4.5
2017-Apr-22 05:30N 32°27' W 091°04'2 4.1
2017-Apr-22 05:00N 32°26' W 091°02'2 3.9
2017-Apr-22 04:30N 32°25' W 090°60'2 4.1
2017-Apr-22 04:01N 32°23' W 090°60'2 3.5
2017-Apr-22 03:30N 32°21' W 090°60'3 5.0
2017-Apr-22 03:00N 32°21' W 090°57'2 4.3
2017-Apr-22 02:30N 32°20' W 090°54'2 3.5
2017-Apr-22 02:01N 32°18' W 090°55'0 0.5
2017-Apr-22 01:31N 32°18' W 090°55'0 0.0
2017-Apr-22 01:00N 32°18' W 090°55'0 0.0
2017-Apr-22 00:30N 32°18' W 090°55'0 0.0
2017-Apr-22 00:00N 32°18' W 090°55'0 0.0
2017-Apr-21 23:30N 32°18' W 090°55'0 0.0
2017-Apr-21 23:00N 32°18' W 090°55'0 0.0
2017-Apr-21 22:30N 32°18' W 090°55'0 0.0
2017-Apr-21 22:00N 32°18' W 090°55'2 3.1
2017-Apr-21 21:30N 32°17' W 090°57'2 4.4
2017-Apr-21 21:00N 32°15' W 090°58'2 4.5
2017-Apr-21 20:30N 32°13' W 090°59'2 4.1
2017-Apr-21 20:01N 32°11' W 090°60'2 4.1
2017-Apr-21 19:30N 32°09' W 091°00'2 4.3
2017-Apr-21 19:00N 32°07' W 091°01'2 4.0
2017-Apr-21 18:30N 32°08' W 091°04'1 1.5
2017-Apr-21 17:58N 32°08' W 091°04'2 3.5
2017-Apr-21 17:30N 32°08' W 091°06'2 3.7
2017-Apr-21 16:52N 32°05' W 091°05'2 4.8
2017-Apr-21 16:21N 32°03' W 091°04'2 4.4
2017-Apr-21 15:56N 32°02' W 091°04'1 2.5
2017-Apr-21 15:30N 32°01' W 091°05'6 4.0
2017-Apr-21 14:06N 31°58' W 091°11'5 4.8
2017-Apr-21 12:58N 31°53' W 091°13'4 4.1
2017-Apr-21 11:56N 31°51' W 091°18'2 4.6
2017-Apr-21 11:28N 31°51' W 091°20'2 3.6
2017-Apr-21 10:58N 31°50' W 091°21'  
2017-Apr-16 22:03N 31°60' W 091°05'1 8.2
2017-Apr-16 21:59N 32°00' W 091°05'4 7.4
2017-Apr-16 21:23N 32°04' W 091°04'4 9.5
2017-Apr-16 21:00N 32°07' W 091°07'4 7.1
2017-Apr-16 20:30N 32°07' W 091°02'3 6.8
2017-Apr-16 20:00N 32°10' W 091°00'4 8.2
2017-Apr-16 19:30N 32°14' W 090°59'4 7.9
2017-Apr-16 19:00N 32°17' W 090°56'4 7.3
2017-Apr-16 18:30N 32°21' W 090°55'4 9.0
2017-Apr-16 18:00N 32°21' W 091°00'4 7.6
2017-Apr-16 17:30N 32°25' W 091°00'4 7.7
2017-Apr-16 17:00N 32°27' W 091°05'4 7.5
2017-Apr-16 16:30N 32°30' W 091°07'4 8.0
2017-Apr-16 16:00N 32°34' W 091°06'4 7.6
2017-Apr-16 15:30N 32°37' W 091°09'  
Track history (hours):
 
Tides and Currents Weather Stations Pressure Air Temp Water Temp Dewpoint Dewpoint Depression Visibility Wind Speed Wind Dir Waves Ship Positions

City Of Vicksburg

Owner: Kirby Inland Marine LP, Houston, TX. More information available from US FCC via Universal Licensing System and Coast Guard Vessel Documentation Center.

Last reported at 2017-Apr-22 09:07 UTC. Time now 2017-Apr-29 09:13 UTC.
Position N 32°40' W 091°07'.

Length 347 m; draft 3 m.

Type: . MMSI: 366996120.

Date/timePositionNaut miles runAvg speedWind from/ knotsBaromVisibWave heightAir tempDewpointWater temp
2017-Apr-22 09:07N 32°40' W 091°07'1 4.7
2017-Apr-22 09:00N 32°40' W 091°08'2 4.5
2017-Apr-22 08:30N 32°38' W 091°09'2 4.2
2017-Apr-22 08:00N 32°36' W 091°08'2 4.2
2017-Apr-22 07:30N 32°34' W 091°07'2 4.3
2017-Apr-22 06:59N 32°32' W 091°06'2 4.7
2017-Apr-22 06:31N 32°30' W 091°07'2 4.4
2017-Apr-22 06:01N 32°28' W 091°06'2 4.5
2017-Apr-22 05:30N 32°27' W 091°04'2 4.1
2017-Apr-22 05:00N 32°26' W 091°02'2 3.9
2017-Apr-22 04:30N 32°25' W 090°60'2 4.1
2017-Apr-22 04:01N 32°23' W 090°60'2 3.5
2017-Apr-22 03:30N 32°21' W 090°60'3 5.0
2017-Apr-22 03:00N 32°21' W 090°57'2 4.3
2017-Apr-22 02:30N 32°20' W 090°54'2 3.5
2017-Apr-22 02:01N 32°18' W 090°55'0 0.5
2017-Apr-22 01:31N 32°18' W 090°55'0 0.0
2017-Apr-22 01:00N 32°18' W 090°55'0 0.0
2017-Apr-22 00:30N 32°18' W 090°55'0 0.0
2017-Apr-22 00:00N 32°18' W 090°55'0 0.0
2017-Apr-21 23:30N 32°18' W 090°55'0 0.0
2017-Apr-21 23:00N 32°18' W 090°55'0 0.0
2017-Apr-21 22:30N 32°18' W 090°55'0 0.0
2017-Apr-21 22:00N 32°18' W 090°55'2 3.1
2017-Apr-21 21:30N 32°17' W 090°57'2 4.4
2017-Apr-21 21:00N 32°15' W 090°58'2 4.5
2017-Apr-21 20:30N 32°13' W 090°59'2 4.1
2017-Apr-21 20:01N 32°11' W 090°60'2 4.1
2017-Apr-21 19:30N 32°09' W 091°00'2 4.3
2017-Apr-21 19:00N 32°07' W 091°01'2 4.0
2017-Apr-21 18:30N 32°08' W 091°04'1 1.5
2017-Apr-21 17:58N 32°08' W 091°04'2 3.5
2017-Apr-21 17:30N 32°08' W 091°06'2 3.7
2017-Apr-21 16:52N 32°05' W 091°05'2 4.8
2017-Apr-21 16:21N 32°03' W 091°04'2 4.4
2017-Apr-21 15:56N 32°02' W 091°04'1 2.5
2017-Apr-21 15:30N 32°01' W 091°05'6 4.0
2017-Apr-21 14:06N 31°58' W 091°11'5 4.8
2017-Apr-21 12:58N 31°53' W 091°13'4 4.1
2017-Apr-21 11:56N 31°51' W 091°18'2 4.6
2017-Apr-21 11:28N 31°51' W 091°20'2 3.6
2017-Apr-21 10:58N 31°50' W 091°21'  
2017-Apr-16 22:03N 31°60' W 091°05'1 8.2
2017-Apr-16 21:59N 32°00' W 091°05'4 7.4
2017-Apr-16 21:23N 32°04' W 091°04'4 9.5
2017-Apr-16 21:00N 32°07' W 091°07'4 7.1
2017-Apr-16 20:30N 32°07' W 091°02'3 6.8
2017-Apr-16 20:00N 32°10' W 091°00'4 8.2
2017-Apr-16 19:30N 32°14' W 090°59'4 7.9
2017-Apr-16 19:00N 32°17' W 090°56'4 7.3
2017-Apr-16 18:30N 32°21' W 090°55'4 9.0
2017-Apr-16 18:00N 32°21' W 091°00'4 7.6
2017-Apr-16 17:30N 32°25' W 091°00'4 7.7
2017-Apr-16 17:00N 32°27' W 091°05'4 7.5
2017-Apr-16 16:30N 32°30' W 091°07'4 8.0
2017-Apr-16 16:00N 32°34' W 091°06'4 7.6
2017-Apr-16 15:30N 32°37' W 091°09'  

Dump ship's entire track history